首页
METAR-TAF:

METAR-TAF

机场 :

贾特拉帕蒂·希瓦吉国际机场

孟买, 印度

纬度: 19-07N, 经度: 072-51E, 海拔: 8米

当前天气观测

该预报发布于13分钟前的14:00 UTC
风速4节,风向西北
温度 30°C
湿度 59%
气压 1013 hPa
能見度: 2400
散云层高于10000英尺

METAR: VABB 201400Z 32004KT 2400 FU SCT100 30/21 Q1013 NOSIG

时间: 19:43 (14:13 UTC)

预报

该预报发布于3小时和13分钟前的11:00 UTC
预报有效从20日的 12点(UTC)到 21日的 18点(UTC)
风速8节,风向西
能見度: 2000
少量云层高于2000英尺
散云层高于10000英尺
霾, 烟
成为
从 20日的 18点(UTC)到 20日的 20点(UTC)
风速4节,风向
成为
从 20日的 22点(UTC)到 20日的 24点(UTC)
风速3节,风向多变
能見度: 1500
轻雾, 霾
成为
从 21日的 04点(UTC)到 21日的 06点(UTC)
风速6节,风向东转东南
能見度: 2000
霾, 烟
成为
从 21日的 08点(UTC)到 21日的 10点(UTC)
风速8节,风向西
能見度: 3000
成为
从 21日的 14点(UTC)到 21日的 16点(UTC)
风速6节,风向北转西北
能見度: 2000
霾, 烟

TAF: VABB 201100Z 2012/2118 28008KT 2000 HZ FU FEW020 SCT100 BECMG 2018/2020 08004KT BECMG 2022/2024 VRB03KT 1500 BR HZ BECMG 2104/2106 12006KT 2000 HZ FU BECMG 2108/2110 28008KT 3000 FU BECMG 2114/2116 34006KT 2000 HZ FU

超过4000个机场的气象观测和天气预报(METAR&TAF报告)。

可查询的气象台以黄色和红色小点在地图上表示。

将鼠标移到小点上方,可查看气象台名称。

然后点击查看天气观测和预报。

如需切换地图:点击带黑十字的绿色按钮放大地图;点击带横线的绿色按钮缩小地图;或者点击绿色箭头查看邻近地区的地图。


METAR-TAF: